sensor_id;sensor_type;location;lat;lon;timestamp;pressure;altitude;pressure_sealevel;temperature;humidity
18755;BME280;35061;47.664;9.166;2023-04-30T00:00:15;101717.41;;;12.87;73.24
18755;BME280;35061;47.664;9.166;2023-04-30T00:02:43;101710.26;;;12.82;73.18
18755;BME280;35061;47.664;9.166;2023-04-30T00:05:11;101712.02;;;12.79;73.04
18755;BME280;35061;47.664;9.166;2023-04-30T00:07:39;101709.02;;;12.74;72.91
18755;BME280;35061;47.664;9.166;2023-04-30T00:10:09;101713.16;;;12.73;72.90
18755;BME280;35061;47.664;9.166;2023-04-30T00:12:37;101711.76;;;12.68;73.03
18755;BME280;35061;47.664;9.166;2023-04-30T00:15:06;101713.23;;;12.63;73.08
18755;BME280;35061;47.664;9.166;2023-04-30T00:17:34;101712.94;;;12.61;73.08
18755;BME280;35061;47.664;9.166;2023-04-30T00:20:02;101708.98;;;12.59;73.12
18755;BME280;35061;47.664;9.166;2023-04-30T00:22:30;101708.62;;;12.56;73.35
18755;BME280;35061;47.664;9.166;2023-04-30T00:25:00;101703.55;;;12.51;73.42
18755;BME280;35061;47.664;9.166;2023-04-30T00:27:28;101706.92;;;12.50;73.60
18755;BME280;35061;47.664;9.166;2023-04-30T00:29:57;101709.18;;;12.46;73.80
18755;BME280;35061;47.664;9.166;2023-04-30T00:32:25;101709.83;;;12.40;74.02
18755;BME280;35061;47.664;9.166;2023-04-30T00:34:53;101709.50;;;12.38;74.20
18755;BME280;35061;47.664;9.166;2023-04-30T00:37:21;101710.98;;;12.34;74.34
18755;BME280;35061;47.664;9.166;2023-04-30T00:39:49;101703.81;;;12.29;74.57
18755;BME280;35061;47.664;9.166;2023-04-30T00:42:17;101703.81;;;12.29;74.77
18755;BME280;35061;47.664;9.166;2023-04-30T00:44:45;101698.22;;;12.25;74.92
18755;BME280;35061;47.664;9.166;2023-04-30T00:47:13;101697.30;;;12.19;75.07
18755;BME280;35061;47.664;9.166;2023-04-30T00:49:41;101697.02;;;12.17;75.24
18755;BME280;35061;47.664;9.166;2023-04-30T00:52:09;101695.90;;;12.14;75.62
18755;BME280;35061;47.664;9.166;2023-04-30T00:54:37;101691.91;;;12.12;75.98
18755;BME280;35061;47.664;9.166;2023-04-30T00:57:06;101696.06;;;12.11;76.62
18755;BME280;35061;47.664;9.166;2023-04-30T00:59:37;101695.90;;;12.05;76.72
18755;BME280;35061;47.664;9.166;2023-04-30T01:02:05;101698.48;;;12.03;77.37
18755;BME280;35061;47.664;9.166;2023-04-30T01:04:34;101697.80;;;11.99;77.70
18755;BME280;35061;47.664;9.166;2023-04-30T01:07:02;101701.16;;;11.97;77.91
18755;BME280;35061;47.664;9.166;2023-04-30T01:09:31;101703.88;;;11.92;77.85
18755;BME280;35061;47.664;9.166;2023-04-30T01:12:09;101701.20;;;11.88;78.04
18755;BME280;35061;47.664;9.166;2023-04-30T01:17:16;101691.16;;;11.83;78.63
18755;BME280;35061;47.664;9.166;2023-04-30T01:19:48;101694.33;;;11.76;78.57
18755;BME280;35061;47.664;9.166;2023-04-30T01:28:00;101683.84;;;11.64;79.04
18755;BME280;35061;47.664;9.166;2023-04-30T01:30:30;101694.20;;;11.61;79.07
18755;BME280;35061;47.664;9.166;2023-04-30T01:32:58;101691.98;;;11.56;79.09
18755;BME280;35061;47.664;9.166;2023-04-30T01:38:59;101692.80;;;11.47;79.85
18755;BME280;35061;47.664;9.166;2023-04-30T01:47:39;101691.23;;;11.37;81.13
18755;BME280;35061;47.664;9.166;2023-04-30T01:52:45;101678.77;;;11.30;80.78
18755;BME280;35061;47.664;9.166;2023-04-30T01:55:21;101685.47;;;11.27;80.73
18755;BME280;35061;47.664;9.166;2023-04-30T01:58:00;101680.66;;;11.24;81.03
18755;BME280;35061;47.664;9.166;2023-04-30T02:00:28;101682.92;;;11.20;80.94
18755;BME280;35061;47.664;9.166;2023-04-30T02:02:59;101681.77;;;11.17;80.88
18755;BME280;35061;47.664;9.166;2023-04-30T02:05:28;101683.54;;;11.15;81.17
18755;BME280;35061;47.664;9.166;2023-04-30T02:07:56;101681.94;;;11.14;81.07
18755;BME280;35061;47.664;9.166;2023-04-30T02:10:25;101678.77;;;11.12;81.27
18755;BME280;35061;47.664;9.166;2023-04-30T02:12:53;101684.48;;;11.12;81.09
18755;BME280;35061;47.664;9.166;2023-04-30T02:15:21;101684.03;;;11.13;81.17
18755;BME280;35061;47.664;9.166;2023-04-30T02:17:49;101677.03;;;11.14;81.03
18755;BME280;35061;47.664;9.166;2023-04-30T02:20:18;101676.05;;;11.17;81.14
18755;BME280;35061;47.664;9.166;2023-04-30T02:22:45;101683.73;;;11.21;81.06
18755;BME280;35061;47.664;9.166;2023-04-30T02:25:13;101676.70;;;11.22;81.07
18755;BME280;35061;47.664;9.166;2023-04-30T02:27:42;101683.08;;;11.26;81.04
18755;BME280;35061;47.664;9.166;2023-04-30T02:30:10;101677.66;;;11.28;81.15
18755;BME280;35061;47.664;9.166;2023-04-30T02:32:37;101686.09;;;11.31;81.08
18755;BME280;35061;47.664;9.166;2023-04-30T02:35:06;101676.67;;;11.31;81.43
18755;BME280;35061;47.664;9.166;2023-04-30T02:37:34;101676.87;;;11.37;81.06
18755;BME280;35061;47.664;9.166;2023-04-30T02:40:02;101676.67;;;11.40;81.06
18755;BME280;35061;47.664;9.166;2023-04-30T02:42:30;101687.23;;;11.43;80.91
18755;BME280;35061;47.664;9.166;2023-04-30T02:44:58;101678.93;;;11.45;80.72
18755;BME280;35061;47.664;9.166;2023-04-30T02:47:26;101674.32;;;11.48;80.55
18755;BME280;35061;47.664;9.166;2023-04-30T02:49:54;101677.49;;;11.50;80.36
18755;BME280;35061;47.664;9.166;2023-04-30T02:52:22;101676.21;;;11.51;80.12
18755;BME280;35061;47.664;9.166;2023-04-30T02:54:50;101679.23;;;11.57;79.96
18755;BME280;35061;47.664;9.166;2023-04-30T02:57:18;101674.61;;;11.59;79.84
18755;BME280;35061;47.664;9.166;2023-04-30T02:59:46;101678.11;;;11.64;80.00
18755;BME280;35061;47.664;9.166;2023-04-30T03:02:14;101677.95;;;11.67;79.95
18755;BME280;35061;47.664;9.166;2023-04-30T03:04:42;101679.06;;;11.70;79.88
18755;BME280;35061;47.664;9.166;2023-04-30T03:07:10;101675.69;;;11.71;79.73
18755;BME280;35061;47.664;9.166;2023-04-30T03:09:38;101671.54;;;11.72;79.66
18755;BME280;35061;47.664;9.166;2023-04-30T03:12:06;101674.74;;;11.75;79.47
18755;BME280;35061;47.664;9.166;2023-04-30T03:14:34;101675.23;;;11.73;79.26
18755;BME280;35061;47.664;9.166;2023-04-30T03:17:02;101680.95;;;11.73;79.07
18755;BME280;35061;47.664;9.166;2023-04-30T03:19:30;101674.41;;;11.72;78.99
18755;BME280;35061;47.664;9.166;2023-04-30T03:21:58;101671.90;;;11.75;78.85
18755;BME280;35061;47.664;9.166;2023-04-30T03:24:26;101670.63;;;11.76;78.85
18755;BME280;35061;47.664;9.166;2023-04-30T03:26:54;101678.70;;;11.77;78.85
18755;BME280;35061;47.664;9.166;2023-04-30T03:29:22;101665.95;;;11.78;78.86
18755;BME280;35061;47.664;9.166;2023-04-30T03:31:50;101670.10;;;11.77;78.65
18755;BME280;35061;47.664;9.166;2023-04-30T03:34:19;101669.31;;;11.77;78.63
18755;BME280;35061;47.664;9.166;2023-04-30T03:36:47;101660.71;;;11.77;78.69
18755;BME280;35061;47.664;9.166;2023-04-30T03:39:14;101668.83;;;11.78;78.79
18755;BME280;35061;47.664;9.166;2023-04-30T03:41:42;101672.52;;;11.79;78.61
18755;BME280;35061;47.664;9.166;2023-04-30T03:44:10;101667.22;;;11.77;78.57
18755;BME280;35061;47.664;9.166;2023-04-30T03:46:42;101669.02;;;11.75;78.34
18755;BME280;35061;47.664;9.166;2023-04-30T03:49:10;101666.02;;;11.69;78.21
18755;BME280;35061;47.664;9.166;2023-04-30T03:51:39;101663.13;;;11.69;78.16
18755;BME280;35061;47.664;9.166;2023-04-30T03:54:08;101669.51;;;11.64;78.05
18755;BME280;35061;47.664;9.166;2023-04-30T03:56:36;101666.30;;;11.62;78.15
18755;BME280;35061;47.664;9.166;2023-04-30T03:59:04;101655.32;;;11.60;78.24
18755;BME280;35061;47.664;9.166;2023-04-30T04:01:32;101664.73;;;11.61;78.26
18755;BME280;35061;47.664;9.166;2023-04-30T04:04:01;101659.47;;;11.59;78.26
18755;BME280;35061;47.664;9.166;2023-04-30T04:06:29;101658.36;;;11.56;78.23
18755;BME280;35061;47.664;9.166;2023-04-30T04:08:57;101659.63;;;11.55;78.29
18755;BME280;35061;47.664;9.166;2023-04-30T04:11:25;101663.00;;;11.54;78.27
18755;BME280;35061;47.664;9.166;2023-04-30T04:13:53;101666.63;;;11.54;78.37
18755;BME280;35061;47.664;9.166;2023-04-30T04:16:22;101660.13;;;11.54;78.33
18755;BME280;35061;47.664;9.166;2023-04-30T04:18:50;101665.36;;;11.55;78.42
18755;BME280;35061;47.664;9.166;2023-04-30T04:21:20;101658.03;;;11.54;78.44
18755;BME280;35061;47.664;9.166;2023-04-30T04:23:48;101665.36;;;11.55;78.50
18755;BME280;35061;47.664;9.166;2023-04-30T04:26:16;101671.90;;;11.56;78.56
18755;BME280;35061;47.664;9.166;2023-04-30T04:28:46;101671.12;;;11.55;78.59
18755;BME280;35061;47.664;9.166;2023-04-30T04:31:14;101668.53;;;11.57;78.63
18755;BME280;35061;47.664;9.166;2023-04-30T04:33:43;101671.12;;;11.55;78.64
18755;BME280;35061;47.664;9.166;2023-04-30T04:36:11;101676.21;;;11.51;78.56
18755;BME280;35061;47.664;9.166;2023-04-30T04:38:39;101676.21;;;11.51;78.72
18755;BME280;35061;47.664;9.166;2023-04-30T04:41:07;101683.54;;;11.52;78.73
18755;BME280;35061;47.664;9.166;2023-04-30T04:43:35;101671.77;;;11.50;78.77
18755;BME280;35061;47.664;9.166;2023-04-30T04:46:04;101681.94;;;11.51;78.80
18755;BME280;35061;47.664;9.166;2023-04-30T04:48:32;101679.38;;;11.53;78.77
18755;BME280;35061;47.664;9.166;2023-04-30T04:51:00;101678.60;;;11.53;78.85
18755;BME280;35061;47.664;9.166;2023-04-30T04:53:28;101679.38;;;11.53;78.69
18755;BME280;35061;47.664;9.166;2023-04-30T04:55:58;101683.54;;;11.52;78.78
18755;BME280;35061;47.664;9.166;2023-04-30T04:58:26;101686.09;;;11.50;78.75
18755;BME280;35061;47.664;9.166;2023-04-30T05:00:55;101679.55;;;11.50;78.71
18755;BME280;35061;47.664;9.166;2023-04-30T05:03:24;101667.78;;;11.48;78.70
18755;BME280;35061;47.664;9.166;2023-04-30T05:05:52;101679.26;;;11.48;78.68
18755;BME280;35061;47.664;9.166;2023-04-30T05:08:20;101679.71;;;11.46;78.77
18755;BME280;35061;47.664;9.166;2023-04-30T05:10:48;101679.71;;;11.46;78.84
18755;BME280;35061;47.664;9.166;2023-04-30T05:13:16;101675.23;;;11.45;78.78
18755;BME280;35061;47.664;9.166;2023-04-30T05:15:43;101687.07;;;11.47;78.88
18755;BME280;35061;47.664;9.166;2023-04-30T05:18:11;101691.84;;;11.50;78.78
18755;BME280;35061;47.664;9.166;2023-04-30T05:20:39;101690.24;;;11.49;78.74
18755;BME280;35061;47.664;9.166;2023-04-30T05:23:07;101689.95;;;11.47;78.73
18755;BME280;35061;47.664;9.166;2023-04-30T05:25:35;101688.64;;;11.48;78.61
18755;BME280;35061;47.664;9.166;2023-04-30T05:28:04;101695.18;;;11.49;78.66
18755;BME280;35061;47.664;9.166;2023-04-30T05:30:33;101699.62;;;11.50;78.64
18755;BME280;35061;47.664;9.166;2023-04-30T05:33:01;101700.45;;;11.50;78.45
18755;BME280;35061;47.664;9.166;2023-04-30T05:35:29;101691.35;;;11.42;78.51
18755;BME280;35061;47.664;9.166;2023-04-30T05:37:58;101692.80;;;11.47;78.50
18755;BME280;35061;47.664;9.166;2023-04-30T05:40:26;101693.58;;;11.48;78.45
18755;BME280;35061;47.664;9.166;2023-04-30T05:42:54;101695.67;;;11.47;78.54
18755;BME280;35061;47.664;9.166;2023-04-30T05:45:23;101689.42;;;11.49;78.43
18755;BME280;35061;47.664;9.166;2023-04-30T05:47:51;101694.20;;;11.52;78.47
18755;BME280;35061;47.664;9.166;2023-04-30T05:50:19;101693.41;;;11.51;78.40
18755;BME280;35061;47.664;9.166;2023-04-30T05:52:47;101697.41;;;11.54;78.38
18755;BME280;35061;47.664;9.166;2023-04-30T05:55:15;101699.01;;;11.55;78.28
18755;BME280;35061;47.664;9.166;2023-04-30T05:57:43;101694.36;;;11.57;78.33
18755;BME280;35061;47.664;9.166;2023-04-30T06:00:11;101697.57;;;11.59;78.69
18755;BME280;35061;47.664;9.166;2023-04-30T06:02:39;101692.92;;;11.62;78.47
18755;BME280;35061;47.664;9.166;2023-04-30T06:05:08;101687.82;;;11.66;78.36
18755;BME280;35061;47.664;9.166;2023-04-30T06:07:36;101688.61;;;11.67;78.19
18755;BME280;35061;47.664;9.166;2023-04-30T06:10:05;101691.03;;;11.68;78.28
18755;BME280;35061;47.664;9.166;2023-04-30T06:12:33;101682.88;;;11.67;78.16
18755;BME280;35061;47.664;9.166;2023-04-30T06:15:01;101682.40;;;11.68;78.09
18755;BME280;35061;47.664;9.166;2023-04-30T06:17:30;101688.45;;;11.70;77.97
18755;BME280;35061;47.664;9.166;2023-04-30T06:19:58;101681.45;;;11.71;77.96
18755;BME280;35061;47.664;9.166;2023-04-30T06:22:29;101694.04;;;11.74;77.85
18755;BME280;35061;47.664;9.166;2023-04-30T06:24:57;101689.10;;;11.75;77.73
18755;BME280;35061;47.664;9.166;2023-04-30T06:27:25;101688.61;;;11.76;77.63
18755;BME280;35061;47.664;9.166;2023-04-30T06:29:56;101686.05;;;11.78;77.45
18755;BME280;35061;47.664;9.166;2023-04-30T06:32:24;101689.42;;;11.77;77.64
18755;BME280;35061;47.664;9.166;2023-04-30T06:34:52;101691.78;;;11.78;77.48
18755;BME280;35061;47.664;9.166;2023-04-30T06:37:20;101684.00;;;11.79;77.51
18755;BME280;35061;47.664;9.166;2023-04-30T06:39:48;101679.68;;;11.83;77.30
18755;BME280;35061;47.664;9.166;2023-04-30T06:42:16;101671.21;;;11.89;77.25
18755;BME280;35061;47.664;9.166;2023-04-30T06:44:44;101675.82;;;11.96;77.19
18755;BME280;35061;47.664;9.166;2023-04-30T06:47:13;101669.09;;;11.99;77.03
18755;BME280;35061;47.664;9.166;2023-04-30T06:49:41;101670.88;;;12.06;77.05
18755;BME280;35061;47.664;9.166;2023-04-30T06:52:09;101672.62;;;12.12;76.95
18755;BME280;35061;47.664;9.166;2023-04-30T06:54:37;101681.19;;;12.22;76.67
18755;BME280;35061;47.664;9.166;2023-04-30T06:57:05;101672.23;;;12.29;76.51
18755;BME280;35061;47.664;9.166;2023-04-30T06:59:33;101680.01;;;12.38;76.49
18755;BME280;35061;47.664;9.166;2023-04-30T07:02:02;101685.89;;;12.44;76.08
18755;BME280;35061;47.664;9.166;2023-04-30T07:04:30;101681.55;;;12.48;75.92
18755;BME280;35061;47.664;9.166;2023-04-30T07:06:58;101682.66;;;12.51;75.67
18755;BME280;35061;47.664;9.166;2023-04-30T07:09:28;101679.59;;;12.54;75.58
18755;BME280;35061;47.664;9.166;2023-04-30T07:11:56;101688.05;;;12.58;75.44
18755;BME280;35061;47.664;9.166;2023-04-30T07:14:25;101684.20;;;12.61;75.05
18755;BME280;35061;47.664;9.166;2023-04-30T07:16:54;101679.55;;;12.64;74.84
18755;BME280;35061;47.664;9.166;2023-04-30T07:19:23;101675.53;;;12.70;74.62
18755;BME280;35061;47.664;9.166;2023-04-30T07:21:53;101678.50;;;12.76;74.57
18755;BME280;35061;47.664;9.166;2023-04-30T07:24:21;101679.75;;;12.84;74.33
18755;BME280;35061;47.664;9.166;2023-04-30T07:26:49;101674.25;;;12.96;74.30
18755;BME280;35061;47.664;9.166;2023-04-30T07:29:17;101671.48;;;13.02;73.70
18755;BME280;35061;47.664;9.166;2023-04-30T07:31:45;101676.87;;;13.09;73.57
18755;BME280;35061;47.664;9.166;2023-04-30T07:34:13;101667.19;;;13.21;73.64
18755;BME280;35061;47.664;9.166;2023-04-30T07:36:41;101674.45;;;13.32;73.61
18755;BME280;35061;47.664;9.166;2023-04-30T07:39:09;101672.78;;;13.40;73.02
18755;BME280;35061;47.664;9.166;2023-04-30T07:41:38;101663.30;;;13.49;72.81
18755;BME280;35061;47.664;9.166;2023-04-30T07:44:06;101668.50;;;13.60;72.60
18755;BME280;35061;47.664;9.166;2023-04-30T07:46:34;101669.38;;;13.66;72.12
18755;BME280;35061;47.664;9.166;2023-04-30T07:49:03;101673.83;;;13.67;71.56
18755;BME280;35061;47.664;9.166;2023-04-30T07:51:31;101668.07;;;13.67;70.88
18755;BME280;35061;47.664;9.166;2023-04-30T07:53:59;101663.63;;;13.66;70.36
18755;BME280;35061;47.664;9.166;2023-04-30T07:56:27;101662.94;;;13.71;70.66
18755;BME280;35061;47.664;9.166;2023-04-30T07:58:55;101663.82;;;13.77;70.51
18755;BME280;35061;47.664;9.166;2023-04-30T08:01:23;101655.19;;;13.77;69.99
18755;BME280;35061;47.664;9.166;2023-04-30T08:03:51;101656.76;;;13.78;69.50
18755;BME280;35061;47.664;9.166;2023-04-30T08:06:19;101648.75;;;13.82;69.90
18755;BME280;35061;47.664;9.166;2023-04-30T08:08:47;101652.51;;;13.89;69.55
18755;BME280;35061;47.664;9.166;2023-04-30T08:11:15;101637.70;;;13.96;69.58
18755;BME280;35061;47.664;9.166;2023-04-30T08:13:44;101640.48;;;14.05;69.55
18755;BME280;35061;47.664;9.166;2023-04-30T08:16:11;101641.36;;;14.12;69.54
18755;BME280;35061;47.664;9.166;2023-04-30T08:18:39;101642.04;;;14.21;69.44
18755;BME280;35061;47.664;9.166;2023-04-30T08:21:12;101638.51;;;14.32;69.18
18755;BME280;35061;47.664;9.166;2023-04-30T08:23:40;101635.44;;;14.36;68.80
18755;BME280;35061;47.664;9.166;2023-04-30T08:26:08;101635.54;;;14.42;68.84
18755;BME280;35061;47.664;9.166;2023-04-30T08:28:36;101645.64;;;14.52;68.48
18755;BME280;35061;47.664;9.166;2023-04-30T08:31:04;101635.08;;;14.64;68.37
18755;BME280;35061;47.664;9.166;2023-04-30T08:33:32;101641.20;;;14.72;67.85
18755;BME280;35061;47.664;9.166;2023-04-30T08:36:00;101636.32;;;14.78;67.33
18755;BME280;35061;47.664;9.166;2023-04-30T08:38:28;101648.52;;;14.88;66.92
18755;BME280;35061;47.664;9.166;2023-04-30T08:41:06;101642.89;;;14.99;66.60
18755;BME280;35061;47.664;9.166;2023-04-30T08:43:35;101635.60;;;15.04;65.61
18755;BME280;35061;47.664;9.166;2023-04-30T08:46:04;101630.17;;;15.12;65.68
18755;BME280;35061;47.664;9.166;2023-04-30T08:48:33;101619.28;;;15.21;64.02
18755;BME280;35061;47.664;9.166;2023-04-30T08:51:02;101630.66;;;15.31;64.74
18755;BME280;35061;47.664;9.166;2023-04-30T08:53:34;101623.99;;;15.45;64.48
18755;BME280;35061;47.664;9.166;2023-04-30T08:56:03;101629.32;;;15.53;62.83
18755;BME280;35061;47.664;9.166;2023-04-30T08:58:31;101631.35;;;15.46;61.76
18755;BME280;35061;47.664;9.166;2023-04-30T09:01:00;101621.87;;;15.40;60.94
18755;BME280;35061;47.664;9.166;2023-04-30T09:03:30;101633.21;;;15.49;62.09
18755;BME280;35061;47.664;9.166;2023-04-30T09:05:58;101632.01;;;15.56;62.00
18755;BME280;35061;47.664;9.166;2023-04-30T09:08:43;101635.44;;;15.60;61.71
18755;BME280;35061;47.664;9.166;2023-04-30T09:11:29;101632.89;;;15.68;61.28
18755;BME280;35061;47.664;9.166;2023-04-30T09:13:59;101622.20;;;15.74;61.09
18755;BME280;35061;47.664;9.166;2023-04-30T09:16:28;101637.43;;;15.81;61.90
18755;BME280;35061;47.664;9.166;2023-04-30T09:18:59;101634.33;;;15.84;61.00
18755;BME280;35061;47.664;9.166;2023-04-30T09:21:31;101629.09;;;15.83;60.48
18755;BME280;35061;47.664;9.166;2023-04-30T09:24:04;101633.84;;;15.86;60.63
18755;BME280;35061;47.664;9.166;2023-04-30T09:26:34;101634.42;;;15.90;60.31
18755;BME280;35061;47.664;9.166;2023-04-30T09:29:04;101637.56;;;15.92;60.17
18755;BME280;35061;47.664;9.166;2023-04-30T09:31:36;101629.98;;;15.95;59.96
18755;BME280;35061;47.664;9.166;2023-04-30T09:34:05;101634.49;;;16.01;60.01
18755;BME280;35061;47.664;9.166;2023-04-30T09:36:33;101616.18;;;16.04;59.20
18755;BME280;35061;47.664;9.166;2023-04-30T09:39:06;101617.78;;;16.11;59.20
18755;BME280;35061;47.664;9.166;2023-04-30T09:41:38;101631.22;;;16.20;59.38
18755;BME280;35061;47.664;9.166;2023-04-30T09:44:06;101619.74;;;16.31;59.39
18755;BME280;35061;47.664;9.166;2023-04-30T09:46:34;101626.64;;;16.40;59.22
18755;BME280;35061;47.664;9.166;2023-04-30T09:49:05;101620.63;;;16.43;58.89
18755;BME280;35061;47.664;9.166;2023-04-30T09:51:34;101618.83;;;16.52;58.54
18755;BME280;35061;47.664;9.166;2023-04-30T09:54:02;101610.72;;;16.56;57.87
18755;BME280;35061;47.664;9.166;2023-04-30T09:56:34;101610.20;;;16.57;57.40
18755;BME280;35061;47.664;9.166;2023-04-30T09:59:06;101621.77;;;16.57;57.21
18755;BME280;35061;47.664;9.166;2023-04-30T10:01:35;101618.30;;;16.53;56.88
18755;BME280;35061;47.664;9.166;2023-04-30T10:04:06;101608.88;;;16.58;56.75
18755;BME280;35061;47.664;9.166;2023-04-30T10:06:34;101617.62;;;16.70;57.03
18755;BME280;35061;47.664;9.166;2023-04-30T10:09:04;101623.17;;;16.79;56.70
18755;BME280;35061;47.664;9.166;2023-04-30T10:11:34;101615.88;;;16.90;56.60
18755;BME280;35061;47.664;9.166;2023-04-30T10:14:10;101621.93;;;16.97;56.17
18755;BME280;35061;47.664;9.166;2023-04-30T10:16:58;101613.27;;;16.97;55.81
18755;BME280;35061;47.664;9.166;2023-04-30T10:19:33;101616.14;;;16.97;55.51
18755;BME280;35061;47.664;9.166;2023-04-30T10:22:01;101611.50;;;17.06;55.82
18755;BME280;35061;47.664;9.166;2023-04-30T10:24:29;101600.19;;;17.13;55.70
18755;BME280;35061;47.664;9.166;2023-04-30T10:26:57;101597.80;;;17.12;54.28
18755;BME280;35061;47.664;9.166;2023-04-30T10:29:26;101608.07;;;17.19;54.91
18755;BME280;35061;47.664;9.166;2023-04-30T10:31:54;101589.69;;;17.22;54.93
18755;BME280;35061;47.664;9.166;2023-04-30T10:35:11;101589.16;;;17.23;54.60
18755;BME280;35061;47.664;9.166;2023-04-30T10:37:42;101579.45;;;17.26;54.78
18755;BME280;35061;47.664;9.166;2023-04-30T10:40:12;101592.60;;;17.33;54.90
18755;BME280;35061;47.664;9.166;2023-04-30T10:42:52;101589.43;;;17.31;54.58
18755;BME280;35061;47.664;9.166;2023-04-30T10:45:37;101576.02;;;17.34;54.06
18755;BME280;35061;47.664;9.166;2023-04-30T10:48:08;101572.09;;;17.37;54.22
18755;BME280;35061;47.664;9.166;2023-04-30T10:50:41;101563.92;;;17.47;54.57
18755;BME280;35061;47.664;9.166;2023-04-30T10:53:13;101566.31;;;17.48;54.05
18755;BME280;35061;47.664;9.166;2023-04-30T10:55:53;101552.34;;;17.52;53.92
18755;BME280;35061;47.664;9.166;2023-04-30T10:58:30;101551.86;;;17.60;53.17
18755;BME280;35061;47.664;9.166;2023-04-30T11:01:17;101552.87;;;17.62;53.49
18755;BME280;35061;47.664;9.166;2023-04-30T11:06:54;101557.38;;;17.63;52.76
18755;BME280;35061;47.664;9.166;2023-04-30T11:09:42;101558.66;;;17.68;52.45
18755;BME280;35061;47.664;9.166;2023-04-30T11:12:19;101547.38;;;17.64;52.26
18755;BME280;35061;47.664;9.166;2023-04-30T11:14:49;101543.68;;;17.69;52.61
18755;BME280;35061;47.664;9.166;2023-04-30T11:17:21;101551.59;;;17.75;52.80
18755;BME280;35061;47.664;9.166;2023-04-30T11:19:52;101545.80;;;17.75;51.99
18755;BME280;35061;47.664;9.166;2023-04-30T11:22:22;101549.21;;;17.79;52.36
18755;BME280;35061;47.664;9.166;2023-04-30T11:27:37;101552.34;;;17.75;51.52
18755;BME280;35061;47.664;9.166;2023-04-30T11:30:14;101547.08;;;17.74;51.77
18755;BME280;35061;47.664;9.166;2023-04-30T11:32:44;101541.59;;;17.76;51.82
18755;BME280;35061;47.664;9.166;2023-04-30T11:35:17;101542.90;;;17.75;52.02
18755;BME280;35061;47.664;9.166;2023-04-30T11:37:47;101546.04;;;17.77;51.73
18755;BME280;35061;47.664;9.166;2023-04-30T11:40:15;101551.59;;;17.75;51.91
18755;BME280;35061;47.664;9.166;2023-04-30T11:42:43;101546.07;;;17.65;51.84
18755;BME280;35061;47.664;9.166;2023-04-30T11:45:13;101533.94;;;17.67;52.03
18755;BME280;35061;47.664;9.166;2023-04-30T11:47:46;101533.67;;;17.70;52.38
18755;BME280;35061;47.664;9.166;2023-04-30T11:50:16;101527.37;;;17.72;52.06
18755;BME280;35061;47.664;9.166;2023-04-30T11:52:49;101531.81;;;17.79;52.44
18755;BME280;35061;47.664;9.166;2023-04-30T11:55:19;101526.55;;;17.77;51.58
18755;BME280;35061;47.664;9.166;2023-04-30T11:57:49;101514.19;;;17.82;51.88
18755;BME280;35061;47.664;9.166;2023-04-30T12:00:20;101518.63;;;17.95;52.19
18755;BME280;35061;47.664;9.166;2023-04-30T12:02:48;101519.94;;;17.99;51.94
18755;BME280;35061;47.664;9.166;2023-04-30T12:05:19;101518.37;;;17.98;51.77
18755;BME280;35061;47.664;9.166;2023-04-30T12:10:22;101517.03;;;18.17;51.04
18755;BME280;35061;47.664;9.166;2023-04-30T12:12:51;101523.05;;;18.24;50.93
18755;BME280;35061;47.664;9.166;2023-04-30T12:15:22;101509.09;;;18.29;50.73
18755;BME280;35061;47.664;9.166;2023-04-30T12:17:57;101515.13;;;18.31;50.14
18755;BME280;35061;47.664;9.166;2023-04-30T12:20:27;101516.97;;;18.34;50.51
18755;BME280;35061;47.664;9.166;2023-04-30T12:22:56;101504.64;;;18.27;50.14
18755;BME280;35061;47.664;9.166;2023-04-30T12:25:27;101508.04;;;18.32;50.62
18755;BME280;35061;47.664;9.166;2023-04-30T12:27:58;101505.13;;;18.32;49.95
18755;BME280;35061;47.664;9.166;2023-04-30T12:30:26;101494.30;;;18.38;50.55
18755;BME280;35061;47.664;9.166;2023-04-30T12:32:58;101506.14;;;18.46;50.64
18755;BME280;35061;47.664;9.166;2023-04-30T12:35:28;101500.32;;;18.51;50.37
18755;BME280;35061;47.664;9.166;2023-04-30T12:38:07;101507.41;;;18.56;50.43
18755;BME280;35061;47.664;9.166;2023-04-30T12:40:36;101502.38;;;18.57;49.86
18755;BME280;35061;47.664;9.166;2023-04-30T12:43:06;101494.20;;;18.61;50.39
18755;BME280;35061;47.664;9.166;2023-04-30T12:45:51;101483.35;;;18.67;50.22
18755;BME280;35061;47.664;9.166;2023-04-30T12:48:21;101492.31;;;18.69;49.91
18755;BME280;35061;47.664;9.166;2023-04-30T12:53:20;101489.37;;;18.80;49.58
18755;BME280;35061;47.664;9.166;2023-04-30T12:58:39;101480.34;;;18.84;47.98
18755;BME280;35061;47.664;9.166;2023-04-30T13:01:11;101489.37;;;18.80;48.41
18755;BME280;35061;47.664;9.166;2023-04-30T13:03:39;101471.19;;;18.74;48.45
18755;BME280;35061;47.664;9.166;2023-04-30T13:06:08;101468.27;;;18.74;48.75
18755;BME280;35061;47.664;9.166;2023-04-30T13:08:37;101477.79;;;18.75;48.54
18755;BME280;35061;47.664;9.166;2023-04-30T13:11:23;101483.02;;;18.76;48.67
18755;BME280;35061;47.664;9.166;2023-04-30T13:13:52;101481.23;;;18.73;48.53
18755;BME280;35061;47.664;9.166;2023-04-30T13:16:22;101477.27;;;18.71;48.69
18755;BME280;35061;47.664;9.166;2023-04-30T13:18:51;101487.53;;;18.72;48.70
18755;BME280;35061;47.664;9.166;2023-04-30T13:21:20;101496.76;;;18.76;48.96
18755;BME280;35061;47.664;9.166;2023-04-30T13:23:48;101487.50;;;18.77;48.87
18755;BME280;35061;47.664;9.166;2023-04-30T13:26:20;101478.31;;;18.73;48.83
18755;BME280;35061;47.664;9.166;2023-04-30T13:28:49;101476.74;;;18.72;49.28
18755;BME280;35061;47.664;9.166;2023-04-30T13:31:17;101469.35;;;18.71;49.29
18755;BME280;35061;47.664;9.166;2023-04-30T13:33:46;101478.87;;;18.66;49.22
18755;BME280;35061;47.664;9.166;2023-04-30T13:36:14;101479.16;;;18.62;49.25